createdAt,value
2019-02-28T00:00:15.999Z,6.69
2019-02-28T00:02:44.497Z,6.68
2019-02-28T00:05:13.035Z,6.85
2019-02-28T00:07:41.601Z,6.85
2019-02-28T00:10:10.520Z,6.63
2019-02-28T00:12:39.010Z,6.61
2019-02-28T00:15:09.328Z,6.68
2019-02-28T00:17:42.735Z,6.71
2019-02-28T00:20:09.156Z,6.81
2019-02-28T00:22:37.789Z,6.77
2019-02-28T00:25:08.501Z,6.52
2019-02-28T00:27:36.995Z,6.58
2019-02-28T00:30:08.833Z,6.60
2019-02-28T00:32:37.338Z,6.62
2019-02-28T00:35:07.344Z,6.80
2019-02-28T00:37:35.837Z,6.82
2019-02-28T00:40:06.709Z,6.82
2019-02-28T00:42:35.362Z,6.68
2019-02-28T00:45:05.397Z,6.66
2019-02-28T00:47:33.891Z,6.74
2019-02-28T00:50:02.365Z,6.82
2019-02-28T00:52:32.057Z,6.74
2019-02-28T00:55:01.260Z,6.66
2019-02-28T00:57:29.710Z,6.68
2019-02-28T00:59:58.176Z,6.63
2019-02-28T01:02:26.671Z,6.76
2019-02-28T01:04:55.133Z,6.53
2019-02-28T01:07:23.628Z,6.50
2019-02-28T01:09:52.103Z,6.41
2019-02-28T01:12:20.593Z,6.46
2019-02-28T01:14:49.064Z,6.32
2019-02-28T01:17:17.565Z,6.24
2019-02-28T01:19:46.037Z,6.27
2019-02-28T01:22:14.544Z,6.19
2019-02-28T01:24:43.018Z,6.24
2019-02-28T01:27:11.514Z,6.21
2019-02-28T01:29:39.981Z,6.14
2019-02-28T01:32:08.477Z,6.32
2019-02-28T01:34:36.948Z,6.18
2019-02-28T01:37:05.445Z,6.34
2019-02-28T01:39:33.921Z,6.23
2019-02-28T01:42:02.419Z,6.08
2019-02-28T01:44:35.605Z,6.01
2019-02-28T01:47:01.111Z,6.05
2019-02-28T01:49:29.583Z,6.17
2019-02-28T01:51:58.087Z,6.15
2019-02-28T01:54:27.626Z,6.14
2019-02-28T01:56:56.937Z,6.19
2019-02-28T01:59:25.409Z,6.17
2019-02-28T02:01:53.908Z,6.10
2019-02-28T02:04:22.383Z,6.15
2019-02-28T02:06:51.318Z,6.03
2019-02-28T02:09:19.861Z,6.10
2019-02-28T02:11:48.356Z,6.07
2019-02-28T02:14:16.825Z,6.24
2019-02-28T02:16:45.325Z,6.08
2019-02-28T02:19:17.490Z,6.01
2019-02-28T02:21:44.005Z,6.06
2019-02-28T02:24:12.501Z,6.18
2019-02-28T02:26:42.354Z,6.24
2019-02-28T02:29:11.193Z,6.17
2019-02-28T02:31:39.739Z,6.26
2019-02-28T02:34:08.233Z,6.26
2019-02-28T02:36:36.706Z,6.29
2019-02-28T02:39:06.444Z,6.05
2019-02-28T02:41:35.032Z,6.04
2019-02-28T02:44:03.693Z,6.04
2019-02-28T02:46:32.171Z,6.14
2019-02-28T02:49:00.672Z,6.21
2019-02-28T02:51:29.153Z,6.57
2019-02-28T02:53:57.645Z,6.51
2019-02-28T02:56:26.121Z,6.58
2019-02-28T02:58:54.616Z,6.60
2019-02-28T03:01:24.359Z,6.69
2019-02-28T03:03:53.061Z,6.83
2019-02-28T03:06:21.537Z,6.86
2019-02-28T03:08:50.052Z,6.82
2019-02-28T03:11:18.511Z,6.95
2019-02-28T03:13:47.012Z,6.93
2019-02-28T03:16:15.483Z,6.97
2019-02-28T03:18:43.982Z,6.92
2019-02-28T03:21:15.231Z,6.77
2019-02-28T03:23:42.677Z,7.00
2019-02-28T03:26:11.149Z,7.06
2019-02-28T03:28:39.638Z,6.86
2019-02-28T03:31:14.156Z,6.80
2019-02-28T03:33:38.338Z,6.56
2019-02-28T03:36:06.811Z,6.50
2019-02-28T03:38:35.304Z,6.70
2019-02-28T03:41:03.774Z,7.17
2019-02-28T03:43:32.329Z,7.27
2019-02-28T03:46:00.809Z,7.23
2019-02-28T03:48:34.675Z,7.14
2019-02-28T03:50:59.482Z,7.38
2019-02-28T03:53:27.985Z,7.34
2019-02-28T03:55:56.453Z,7.06
2019-02-28T03:58:24.943Z,6.69
2019-02-28T04:00:53.409Z,6.50
2019-02-28T04:03:21.908Z,6.23
2019-02-28T04:05:50.375Z,6.00
2019-02-28T04:08:18.894Z,6.12
2019-02-28T04:10:47.356Z,6.05
2019-02-28T04:13:19.141Z,6.00
2019-02-28T04:16:01.534Z,6.13
2019-02-28T04:18:16.260Z,6.28
2019-02-28T04:20:44.738Z,6.27
2019-02-28T04:23:13.234Z,6.32
2019-02-28T04:25:41.707Z,6.59
2019-02-28T04:28:17.314Z,6.82
2019-02-28T04:30:43.721Z,6.69
2019-02-28T04:33:10.630Z,6.72
2019-02-28T04:35:39.171Z,6.87
2019-02-28T04:38:07.671Z,6.88
2019-02-28T04:40:36.137Z,6.78
2019-02-28T04:43:07.254Z,6.53
2019-02-28T04:45:34.823Z,6.40
2019-02-28T04:48:03.314Z,6.35
2019-02-28T04:50:32.282Z,6.48
2019-02-28T04:53:00.755Z,6.49
2019-02-28T04:55:30.618Z,6.58
2019-02-28T04:57:59.184Z,6.41
2019-02-28T05:00:27.685Z,6.23
2019-02-28T05:02:56.162Z,6.26
2019-02-28T05:05:24.656Z,6.39
2019-02-28T05:07:53.128Z,6.31
2019-02-28T05:10:22.274Z,6.29
2019-02-28T05:12:51.377Z,6.28
2019-02-28T05:15:19.875Z,6.35
2019-02-28T05:17:48.351Z,6.33
2019-02-28T05:20:16.863Z,6.25
2019-02-28T05:22:45.328Z,6.44
2019-02-28T05:25:17.555Z,6.67
2019-02-28T05:27:44.024Z,6.67
2019-02-28T05:30:18.056Z,6.86
2019-02-28T05:32:44.802Z,6.93
2019-02-28T05:35:13.367Z,6.90
2019-02-28T05:37:46.700Z,7.01
2019-02-28T05:40:13.802Z,6.86
2019-02-28T05:42:42.291Z,7.02
2019-02-28T05:45:14.466Z,7.16
2019-02-28T05:47:46.288Z,7.42
2019-02-28T05:50:15.580Z,7.74
2019-02-28T05:52:42.669Z,7.67
2019-02-28T05:55:11.612Z,7.68
2019-02-28T05:57:43.393Z,7.63
2019-02-28T06:00:13.573Z,7.63
2019-02-28T06:02:42.051Z,7.39
2019-02-28T06:05:11.847Z,7.22
2019-02-28T06:07:40.752Z,7.10
2019-02-28T06:10:11.089Z,6.98
2019-02-28T06:12:40.540Z,7.21
2019-02-28T06:15:11.983Z,7.29
2019-02-28T06:17:40.452Z,7.29
2019-02-28T06:20:10.599Z,7.38
2019-02-28T06:22:39.077Z,7.30
2019-02-28T06:25:09.340Z,7.13
2019-02-28T06:27:41.647Z,7.14
2019-02-28T06:30:12.969Z,7.55
2019-02-28T06:32:41.445Z,7.67
2019-02-28T06:35:10.086Z,8.00
2019-02-28T06:37:39.207Z,8.08
2019-02-28T06:40:13.350Z,8.07
2019-02-28T06:42:43.439Z,8.31
2019-02-28T06:45:19.049Z,8.37
2019-02-28T06:47:49.595Z,8.55
2019-02-28T06:50:17.809Z,8.65
2019-02-28T06:52:46.283Z,8.58
2019-02-28T06:55:25.388Z,8.71
2019-02-28T06:57:53.856Z,8.81
2019-02-28T07:00:22.425Z,8.83
2019-02-28T07:02:50.900Z,8.92
2019-02-28T07:05:24.622Z,8.86
2019-02-28T07:07:50.058Z,8.84
2019-02-28T07:10:18.948Z,9.07
2019-02-28T07:12:47.421Z,9.10
2019-02-28T07:15:15.999Z,9.18
2019-02-28T07:17:46.520Z,9.23
2019-02-28T07:20:16.042Z,9.29
2019-02-28T07:22:44.597Z,9.33
2019-02-28T07:25:13.874Z,9.38
2019-02-28T07:27:42.498Z,9.39
2019-02-28T07:30:17.333Z,9.36
2019-02-28T07:32:44.164Z,9.47
2019-02-28T07:35:12.740Z,9.42
2019-02-28T07:37:41.220Z,9.41
2019-02-28T07:40:17.543Z,9.42
2019-02-28T07:42:46.225Z,9.48
2019-02-28T07:45:15.366Z,9.54
2019-02-28T07:47:43.979Z,9.60
2019-02-28T07:50:14.590Z,9.61
2019-02-28T07:52:43.061Z,9.66
2019-02-28T07:55:13.701Z,9.74
2019-02-28T07:57:42.184Z,9.71
2019-02-28T08:00:18.190Z,9.83
2019-02-28T08:02:46.202Z,9.83
2019-02-28T08:05:15.136Z,9.88
2019-02-28T08:07:50.196Z,9.87
2019-02-28T08:10:19.255Z,9.87
2019-02-28T08:12:47.734Z,10.01
2019-02-28T08:15:23.582Z,10.05
2019-02-28T08:17:52.301Z,10.09
2019-02-28T08:20:21.345Z,10.14
2019-02-28T08:22:49.827Z,10.22
2019-02-28T08:25:18.332Z,10.27
2019-02-28T08:27:46.946Z,10.35
2019-02-28T08:30:20.880Z,10.32
2019-02-28T08:32:49.598Z,10.29
2019-02-28T08:35:18.122Z,10.33
2019-02-28T08:37:46.588Z,10.33
2019-02-28T08:40:22.983Z,10.39
2019-02-28T08:42:51.460Z,10.49
2019-02-28T08:45:19.974Z,10.47
2019-02-28T08:47:48.530Z,10.59
2019-02-28T08:50:23.629Z,10.87
2019-02-28T08:53:05.652Z,11.26
2019-02-28T08:55:34.162Z,11.87
2019-02-28T08:58:06.070Z,12.59
2019-02-28T09:00:33.424Z,12.51
2019-02-28T09:03:02.014Z,12.63
2019-02-28T09:05:30.532Z,12.97
2019-02-28T09:07:59.139Z,12.97
2019-02-28T09:10:28.076Z,12.58
2019-02-28T09:12:56.563Z,12.56
2019-02-28T09:15:30.147Z,12.93
2019-02-28T09:17:59.359Z,13.02
2019-02-28T09:20:25.822Z,13.18
2019-02-28T09:22:54.311Z,13.53
2019-02-28T09:25:23.961Z,13.33
2019-02-28T09:27:52.585Z,13.17
2019-02-28T09:30:41.619Z,12.60
2019-02-28T09:33:10.212Z,12.63
2019-02-28T09:35:38.680Z,12.53
2019-02-28T09:38:13.014Z,12.38
2019-02-28T09:40:37.392Z,12.36
2019-02-28T09:43:06.016Z,12.48
2019-02-28T09:45:35.002Z,12.32
2019-02-28T09:48:03.548Z,12.39
2019-02-28T09:50:33.163Z,12.29
2019-02-28T09:53:01.894Z,12.20
2019-02-28T09:55:34.262Z,12.23
2019-02-28T09:58:00.674Z,12.25
2019-02-28T10:00:30.248Z,12.25
2019-02-28T10:02:58.723Z,12.04
2019-02-28T10:05:27.222Z,11.99
2019-02-28T10:08:01.690Z,11.97
2019-02-28T10:10:30.301Z,12.25
2019-02-28T10:12:58.777Z,12.16
2019-02-28T10:15:27.428Z,12.15
2019-02-28T10:17:55.954Z,12.11
2019-02-28T10:20:28.418Z,12.25
2019-02-28T10:22:57.163Z,12.25
2019-02-28T10:25:25.713Z,12.07
2019-02-28T10:27:54.831Z,12.18
2019-02-28T10:30:31.624Z,12.28
2019-02-28T10:32:54.991Z,12.32
2019-02-28T10:35:23.474Z,12.28
2019-02-28T10:37:57.454Z,12.36
2019-02-28T10:40:24.963Z,12.46
2019-02-28T10:42:53.807Z,12.58
2019-02-28T10:45:23.096Z,12.46
2019-02-28T10:47:51.608Z,12.31
2019-02-28T10:50:22.429Z,12.57
2019-02-28T10:52:51.003Z,12.66
2019-02-28T10:55:22.403Z,12.67
2019-02-28T10:57:50.187Z,12.56
2019-02-28T11:00:29.282Z,12.55
2019-02-28T11:02:57.781Z,12.74
2019-02-28T11:05:29.087Z,12.84
2019-02-28T11:07:57.735Z,12.86
2019-02-28T11:10:37.994Z,12.92
2019-02-28T11:13:09.555Z,13.01
2019-02-28T11:15:38.176Z,13.47
2019-02-28T11:18:09.559Z,13.30
2019-02-28T11:20:37.747Z,13.41
2019-02-28T11:23:07.652Z,13.35
2019-02-28T11:25:36.516Z,13.41
2019-02-28T11:28:05.261Z,13.59
2019-02-28T11:30:36.053Z,13.09
2019-02-28T11:33:04.855Z,13.51
2019-02-28T11:35:33.481Z,14.00
2019-02-28T11:38:02.115Z,13.92
2019-02-28T11:40:30.844Z,13.81
2019-02-28T11:43:02.754Z,13.93
2019-02-28T11:45:34.209Z,14.41
2019-02-28T11:48:05.358Z,14.45
2019-02-28T11:50:33.912Z,14.82
2019-02-28T11:53:05.708Z,14.56
2019-02-28T11:55:32.622Z,14.54
2019-02-28T11:58:01.569Z,14.77
2019-02-28T12:00:35.916Z,14.43
2019-02-28T12:03:02.955Z,14.56
2019-02-28T12:05:31.505Z,14.64
2019-02-28T12:08:00.014Z,14.72
2019-02-28T12:10:28.497Z,15.26
2019-02-28T12:12:57.000Z,15.10
2019-02-28T12:15:30.771Z,14.98
2019-02-28T12:18:03.495Z,14.85
2019-02-28T12:20:29.557Z,14.46
2019-02-28T12:22:58.071Z,14.27
2019-02-28T12:25:26.892Z,14.63
2019-02-28T12:27:55.471Z,15.12
2019-02-28T12:30:29.052Z,15.07
2019-02-28T12:32:57.564Z,14.95
2019-02-28T12:35:26.042Z,15.33
2019-02-28T12:37:55.016Z,15.66
2019-02-28T12:40:35.264Z,15.49
2019-02-28T12:43:08.807Z,15.61
2019-02-28T12:45:41.276Z,16.11
2019-02-28T12:48:09.862Z,16.19
2019-02-28T12:50:38.405Z,16.19
2019-02-28T12:53:07.253Z,16.10
2019-02-28T12:55:39.022Z,16.16
2019-02-28T12:58:06.907Z,16.30
2019-02-28T13:00:40.682Z,16.86
2019-02-28T13:03:10.219Z,16.87
2019-02-28T13:05:38.771Z,16.83
2019-02-28T13:08:07.287Z,15.78
2019-02-28T13:10:35.999Z,15.93
2019-02-28T13:13:06.794Z,16.02
2019-02-28T13:15:35.022Z,16.59
2019-02-28T13:18:07.163Z,16.41
2019-02-28T13:20:36.489Z,16.81
2019-02-28T13:23:05.347Z,17.17
2019-02-28T13:25:34.011Z,18.53
2019-02-28T13:28:02.512Z,18.23
2019-02-28T13:30:31.138Z,18.25
2019-02-28T13:32:59.814Z,18.85
2019-02-28T13:35:30.704Z,18.67
2019-02-28T13:37:59.291Z,18.42
2019-02-28T13:40:27.771Z,18.55
2019-02-28T13:42:56.296Z,17.42
2019-02-28T13:45:25.496Z,17.01
2019-02-28T13:47:54.005Z,16.74
2019-02-28T13:50:33.160Z,16.14
2019-02-28T13:53:03.441Z,16.17
2019-02-28T13:55:31.999Z,16.45
2019-02-28T13:58:00.660Z,16.50
2019-02-28T14:00:33.816Z,16.31
2019-02-28T14:03:10.487Z,16.54
2019-02-28T14:05:41.296Z,15.56
2019-02-28T14:08:11.243Z,15.66
2019-02-28T14:10:39.662Z,15.39
2019-02-28T14:13:08.375Z,15.70
2019-02-28T14:15:39.336Z,16.05
2019-02-28T14:18:10.945Z,15.37
2019-02-28T14:20:38.560Z,16.32
2019-02-28T14:23:07.142Z,16.32
2019-02-28T14:25:36.377Z,16.71
2019-02-28T14:28:06.097Z,16.83
2019-02-28T14:30:34.651Z,15.81
2019-02-28T14:33:03.226Z,14.92
2019-02-28T14:35:35.184Z,14.66
2019-02-28T14:38:01.930Z,14.34
2019-02-28T14:40:30.418Z,14.58
2019-02-28T14:42:58.998Z,14.32
2019-02-28T14:45:29.520Z,14.57
2019-02-28T14:48:00.865Z,14.93
2019-02-28T14:50:28.229Z,15.12
2019-02-28T14:52:58.086Z,14.94
2019-02-28T14:55:29.377Z,15.17
2019-02-28T14:57:57.247Z,14.84
2019-02-28T15:00:35.342Z,14.70
2019-02-28T15:03:04.214Z,14.60
2019-02-28T15:05:38.137Z,13.86
2019-02-28T15:08:06.793Z,13.60
2019-02-28T15:10:35.414Z,13.30
2019-02-28T15:13:04.936Z,13.24
2019-02-28T15:15:35.919Z,13.21
2019-02-28T15:18:04.190Z,13.15
2019-02-28T15:20:33.162Z,13.18
2019-02-28T15:23:01.862Z,13.26
2019-02-28T15:25:30.981Z,13.22
2019-02-28T15:27:59.662Z,13.23
2019-02-28T15:30:34.838Z,13.02
2019-02-28T15:33:03.672Z,12.94
2019-02-28T15:35:32.135Z,12.84
2019-02-28T15:38:00.730Z,13.02
2019-02-28T15:40:32.049Z,13.13
2019-02-28T15:43:00.564Z,13.01
2019-02-28T15:45:29.179Z,12.99
2019-02-28T15:47:59.130Z,12.83
2019-02-28T15:50:27.886Z,12.74
2019-02-28T15:52:56.504Z,12.72
2019-02-28T15:55:25.548Z,12.67
2019-02-28T15:57:54.094Z,12.63
2019-02-28T16:00:30.512Z,12.61
2019-02-28T16:02:59.128Z,12.56
2019-02-28T16:05:27.774Z,12.46
2019-02-28T16:07:57.298Z,12.40
2019-02-28T16:10:28.575Z,12.27
2019-02-28T16:12:58.717Z,12.26
2019-02-28T16:15:27.451Z,12.22
2019-02-28T16:17:56.016Z,12.06
2019-02-28T16:20:25.106Z,11.86
2019-02-28T16:22:53.659Z,11.80
2019-02-28T16:25:25.020Z,11.78
2019-02-28T16:27:53.496Z,11.76
2019-02-28T16:30:22.347Z,11.73
2019-02-28T16:32:50.860Z,11.75
2019-02-28T16:35:19.439Z,11.67
2019-02-28T16:37:47.934Z,11.41
2019-02-28T16:40:26.181Z,11.28
2019-02-28T16:42:51.730Z,11.37
2019-02-28T16:45:24.929Z,11.27
2019-02-28T16:47:55.688Z,11.08
2019-02-28T16:50:23.645Z,11.02
2019-02-28T16:52:52.321Z,11.03
2019-02-28T16:55:20.830Z,10.85
2019-02-28T16:57:49.313Z,10.78
2019-02-28T17:00:18.336Z,10.83
2019-02-28T17:02:46.955Z,10.75
2019-02-28T17:05:15.535Z,10.72
2019-02-28T17:07:44.567Z,10.79
2019-02-28T17:10:19.006Z,10.81
2019-02-28T17:12:51.962Z,10.81
2019-02-28T17:15:23.276Z,10.82
2019-02-28T17:17:54.211Z,10.72
2019-02-28T17:20:22.720Z,10.70
2019-02-28T17:22:51.203Z,10.73
2019-02-28T17:25:21.832Z,10.68
2019-02-28T17:27:57.277Z,10.69
2019-02-28T17:30:39.188Z,10.51
2019-02-28T17:33:09.091Z,10.45
2019-02-28T17:35:38.295Z,10.46
2019-02-28T17:38:06.846Z,10.39
2019-02-28T17:40:35.424Z,10.30
2019-02-28T17:43:03.901Z,10.31
2019-02-28T17:45:32.482Z,10.38
2019-02-28T17:48:20.420Z,10.24
2019-02-28T17:51:00.545Z,10.14
2019-02-28T17:53:35.018Z,10.14
2019-02-28T17:56:24.524Z,10.10
2019-02-28T17:59:05.289Z,10.08
2019-02-28T18:01:48.429Z,10.03
2019-02-28T18:04:24.110Z,10.02
2019-02-28T18:07:16.568Z,10.06
2019-02-28T18:09:53.980Z,9.99
2019-02-28T18:12:58.356Z,9.99
2019-02-28T18:15:35.795Z,9.91
2019-02-28T18:18:22.407Z,9.99
2019-02-28T18:21:12.583Z,9.94
2019-02-28T18:23:50.035Z,9.80
2019-02-28T18:26:39.284Z,9.81
2019-02-28T18:29:14.874Z,9.86
2019-02-28T18:31:43.360Z,9.65
2019-02-28T18:34:11.991Z,9.66
2019-02-28T18:36:43.377Z,9.58
2019-02-28T18:39:11.637Z,9.52
2019-02-28T18:41:42.156Z,9.53
2019-02-28T18:44:11.093Z,9.47
2019-02-28T18:46:39.590Z,9.51
2019-02-28T18:49:08.075Z,9.26
2019-02-28T18:51:36.581Z,9.35
2019-02-28T18:54:05.303Z,9.28
2019-02-28T18:56:33.816Z,9.14
2019-02-28T18:59:02.358Z,9.14
2019-02-28T19:01:30.915Z,9.08
2019-02-28T19:03:59.424Z,9.34
2019-02-28T19:06:27.973Z,9.26
2019-02-28T19:08:56.480Z,9.22
2019-02-28T19:11:25.062Z,9.18
2019-02-28T19:13:53.563Z,9.18
2019-02-28T19:16:22.068Z,9.17
2019-02-28T19:18:50.547Z,9.15
2019-02-28T19:21:19.057Z,9.13
2019-02-28T19:23:47.540Z,9.19
2019-02-28T19:26:17.521Z,9.13
2019-02-28T19:28:46.004Z,9.13
2019-02-28T19:31:14.515Z,9.23
2019-02-28T19:33:43.064Z,9.22
2019-02-28T19:36:11.579Z,9.16
2019-02-28T19:38:40.058Z,9.19
2019-02-28T19:41:10.208Z,9.06
2019-02-28T19:43:38.691Z,8.87
2019-02-28T19:46:07.296Z,9.01
2019-02-28T19:48:36.439Z,8.95
2019-02-28T19:51:05.194Z,8.67
2019-02-28T19:53:33.678Z,8.87
2019-02-28T19:56:02.189Z,8.82
2019-02-28T19:58:30.728Z,8.81
2019-02-28T20:00:59.697Z,8.72
2019-02-28T20:03:28.173Z,8.67
2019-02-28T20:05:56.706Z,8.51
2019-02-28T20:08:25.180Z,8.37
2019-02-28T20:10:53.772Z,8.35
2019-02-28T20:13:22.250Z,8.19
2019-02-28T20:15:50.837Z,8.06
2019-02-28T20:18:19.378Z,7.55
2019-02-28T20:20:48.662Z,6.42
2019-02-28T20:23:17.158Z,6.53
2019-02-28T20:25:45.627Z,6.78
2019-02-28T20:28:14.214Z,6.85
2019-02-28T20:30:42.773Z,7.01
2019-02-28T20:33:11.362Z,6.80
2019-02-28T20:35:39.909Z,6.63
2019-02-28T20:38:08.422Z,6.48
2019-02-28T20:40:38.334Z,6.68
2019-02-28T20:43:06.845Z,6.81
2019-02-28T20:45:35.327Z,6.51
2019-02-28T20:48:04.357Z,6.48
2019-02-28T20:50:47.578Z,6.45
2019-02-28T20:53:16.097Z,6.30
2019-02-28T20:55:44.594Z,6.15
2019-02-28T20:58:13.118Z,6.23
2019-02-28T21:00:41.667Z,6.39
2019-02-28T21:03:10.191Z,6.30
2019-02-28T21:05:38.742Z,6.40
2019-02-28T21:08:07.262Z,6.42
2019-02-28T21:10:35.736Z,6.33
2019-02-28T21:13:04.321Z,6.06
2019-02-28T21:15:32.802Z,5.95
2019-02-28T21:18:01.325Z,5.92
2019-02-28T21:20:29.825Z,5.92
2019-02-28T21:22:58.332Z,6.04
2019-02-28T21:25:26.834Z,6.33
2019-02-28T21:27:55.331Z,6.11
2019-02-28T21:30:26.033Z,6.03
2019-02-28T21:32:54.804Z,5.98
2019-02-28T21:35:23.723Z,6.20
2019-02-28T21:37:52.382Z,6.35
2019-02-28T21:40:22.067Z,6.49
2019-02-28T21:42:51.671Z,6.58
2019-02-28T21:45:22.438Z,6.72
2019-02-28T21:47:50.986Z,6.58
2019-02-28T21:50:19.531Z,6.67
2019-02-28T21:52:48.233Z,6.67
2019-02-28T21:55:17.976Z,6.74
2019-02-28T21:57:46.871Z,6.82
2019-02-28T22:00:18.400Z,6.86
2019-02-28T22:02:46.918Z,6.67
2019-02-28T22:05:15.540Z,6.57
2019-02-28T22:07:44.606Z,6.64
2019-02-28T22:10:17.318Z,6.65
2019-02-28T22:12:45.876Z,6.71
2019-02-28T22:15:16.414Z,6.65
2019-02-28T22:17:44.912Z,6.54
2019-02-28T22:20:14.944Z,6.49
2019-02-28T22:22:43.457Z,6.64
2019-02-28T22:25:14.320Z,6.45
2019-02-28T22:27:42.981Z,6.34
2019-02-28T22:30:24.692Z,6.34
2019-02-28T22:32:57.771Z,6.22
2019-02-28T22:35:27.896Z,6.35
2019-02-28T22:37:56.410Z,6.39
2019-02-28T22:40:24.896Z,6.43
2019-02-28T22:42:53.408Z,6.52
2019-02-28T22:45:21.893Z,6.40
2019-02-28T22:47:50.410Z,6.36
2019-02-28T22:50:18.901Z,6.44
2019-02-28T22:52:47.942Z,6.33
2019-02-28T22:55:18.989Z,6.43
2019-02-28T22:57:47.490Z,6.53
2019-02-28T23:00:31.872Z,6.45
2019-02-28T23:03:00.470Z,6.60
2019-02-28T23:05:28.936Z,6.55
2019-02-28T23:07:57.484Z,6.39
2019-02-28T23:10:25.935Z,6.39
2019-02-28T23:12:54.577Z,6.52
2019-02-28T23:15:23.060Z,6.73
2019-02-28T23:17:51.566Z,6.62
2019-02-28T23:20:20.048Z,6.64
2019-02-28T23:22:48.555Z,6.65
2019-02-28T23:25:17.034Z,6.63
2019-02-28T23:27:45.544Z,6.65
2019-02-28T23:30:35.043Z,6.57
2019-02-28T23:33:03.693Z,6.63
2019-02-28T23:35:34.307Z,6.71
2019-02-28T23:38:02.812Z,6.79
2019-02-28T23:40:31.330Z,6.89
2019-02-28T23:42:59.794Z,6.80
2019-02-28T23:45:28.276Z,6.66
2019-02-28T23:47:56.788Z,6.66
2019-02-28T23:50:25.270Z,6.72
2019-02-28T23:52:53.778Z,6.73
2019-02-28T23:55:22.263Z,6.83
2019-02-28T23:57:50.750Z,7.00
